sensor_id;sensor_type;location;lat;lon;timestamp;pressure;altitude;pressure_sealevel;temperature;humidity
74242;BME280;62599;49.146;10.426;2023-03-01T00:01:12;96482.06;;;-4.46;99.11
74242;BME280;62599;49.146;10.426;2023-03-01T00:03:38;96480.44;;;-4.47;98.85
74242;BME280;62599;49.146;10.426;2023-03-01T00:06:04;96482.50;;;-4.49;98.41
74242;BME280;62599;49.146;10.426;2023-03-01T00:08:31;96480.06;;;-4.50;98.79
74242;BME280;62599;49.146;10.426;2023-03-01T00:11:24;96476.25;;;-4.54;98.54
74242;BME280;62599;49.146;10.426;2023-03-01T00:13:52;96484.13;;;-4.54;98.72
74242;BME280;62599;49.146;10.426;2023-03-01T00:16:21;96477.28;;;-4.55;98.84
74242;BME280;62599;49.146;10.426;2023-03-01T00:18:46;96484.13;;;-4.54;98.95
74242;BME280;62599;49.146;10.426;2023-03-01T00:21:12;96491.47;;;-4.56;99.05
74242;BME280;62599;49.146;10.426;2023-03-01T00:23:38;96482.97;;;-4.58;99.40
74242;BME280;62599;49.146;10.426;2023-03-01T00:26:12;96480.19;;;-4.64;99.80
74242;BME280;62599;49.146;10.426;2023-03-01T00:28:38;96487.06;;;-4.63;98.95
74242;BME280;62599;49.146;10.426;2023-03-01T00:31:10;96487.44;;;-4.59;99.26
74242;BME280;62599;49.146;10.426;2023-03-01T00:33:35;96482.97;;;-4.58;99.11
74242;BME280;62599;49.146;10.426;2023-03-01T00:36:02;96490.44;;;-4.55;99.01
74242;BME280;62599;49.146;10.426;2023-03-01T00:38:27;96486.19;;;-4.56;99.30
74242;BME280;62599;49.146;10.426;2023-03-01T00:40:53;96494.66;;;-4.54;99.18
74242;BME280;62599;49.146;10.426;2023-03-01T00:43:18;96488.97;;;-4.51;99.36
74242;BME280;62599;49.146;10.426;2023-03-01T00:45:44;96493.16;;;-4.44;99.15
74242;BME280;62599;49.146;10.426;2023-03-01T00:48:09;96487.03;;;-4.38;98.90
74242;BME280;62599;49.146;10.426;2023-03-01T00:50:35;96500.91;;;-4.30;99.34
74242;BME280;62599;49.146;10.426;2023-03-01T00:53:00;96492.31;;;-4.19;98.41
74242;BME280;62599;49.146;10.426;2023-03-01T00:55:26;96494.22;;;-4.08;98.09
74242;BME280;62599;49.146;10.426;2023-03-01T00:57:54;96496.34;;;-3.98;97.48
74242;BME280;62599;49.146;10.426;2023-03-01T01:00:20;96490.00;;;-3.91;97.13
74242;BME280;62599;49.146;10.426;2023-03-01T01:02:46;96491.53;;;-3.83;97.09
74242;BME280;62599;49.146;10.426;2023-03-01T01:05:12;96483.91;;;-3.73;96.60
74242;BME280;62599;49.146;10.426;2023-03-01T01:07:40;96489.09;;;-3.66;95.49
74242;BME280;62599;49.146;10.426;2023-03-01T01:10:06;96485.22;;;-3.64;96.29
74242;BME280;62599;49.146;10.426;2023-03-01T01:12:32;96474.03;;;-3.59;95.04
74242;BME280;62599;49.146;10.426;2023-03-01T01:14:58;96473.56;;;-3.56;95.44
74242;BME280;62599;49.146;10.426;2023-03-01T01:17:23;96468.91;;;-3.54;94.79
74242;BME280;62599;49.146;10.426;2023-03-01T01:19:49;96473.72;;;-3.51;95.13
74242;BME280;62599;49.146;10.426;2023-03-01T01:22:14;96460.56;;;-3.51;94.70
74242;BME280;62599;49.146;10.426;2023-03-01T01:24:39;96464.78;;;-3.50;95.16
74242;BME280;62599;49.146;10.426;2023-03-01T01:27:05;96459.53;;;-3.50;95.63
74242;BME280;62599;49.146;10.426;2023-03-01T01:29:32;96457.69;;;-3.49;95.29
74242;BME280;62599;49.146;10.426;2023-03-01T01:31:57;96442.13;;;-3.51;94.53
74242;BME280;62599;49.146;10.426;2023-03-01T01:34:23;96447.53;;;-3.46;94.54
74242;BME280;62599;49.146;10.426;2023-03-01T01:36:50;96441.44;;;-3.46;95.15
74242;BME280;62599;49.146;10.426;2023-03-01T01:39:16;96439.84;;;-3.47;93.88
74242;BME280;62599;49.146;10.426;2023-03-01T01:41:42;96441.44;;;-3.46;94.92
74242;BME280;62599;49.146;10.426;2023-03-01T01:46:45;96435.16;;;-3.45;94.35
74242;BME280;62599;49.146;10.426;2023-03-01T01:51:42;96422.22;;;-3.47;94.60
74242;BME280;62599;49.146;10.426;2023-03-01T01:54:20;96424.28;;;-3.49;95.10
74242;BME280;62599;49.146;10.426;2023-03-01T01:56:52;96420.84;;;-3.49;94.66
74242;BME280;62599;49.146;10.426;2023-03-01T01:59:20;96420.84;;;-3.49;94.41
74242;BME280;62599;49.146;10.426;2023-03-01T02:01:50;96415.56;;;-3.49;95.14
74242;BME280;62599;49.146;10.426;2023-03-01T02:04:16;96411.09;;;-3.49;95.18
74242;BME280;62599;49.146;10.426;2023-03-01T02:06:47;96411.34;;;-3.50;94.72
74242;BME280;62599;49.146;10.426;2023-03-01T02:09:16;96410.53;;;-3.51;94.71
74242;BME280;62599;49.146;10.426;2023-03-01T02:11:44;96400.81;;;-3.50;95.31
74242;BME280;62599;49.146;10.426;2023-03-01T02:14:09;96402.84;;;-3.52;95.35
74242;BME280;62599;49.146;10.426;2023-03-01T02:16:35;96400.81;;;-3.50;94.49
74242;BME280;62599;49.146;10.426;2023-03-01T02:19:00;96405.28;;;-3.51;95.16
74242;BME280;62599;49.146;10.426;2023-03-01T02:21:44;96399.56;;;-3.48;94.00
74242;BME280;62599;49.146;10.426;2023-03-01T02:24:36;96401.59;;;-3.50;94.70
74242;BME280;62599;49.146;10.426;2023-03-01T02:27:05;96390.72;;;-3.53;94.96
74242;BME280;62599;49.146;10.426;2023-03-01T02:29:30;96395.28;;;-3.60;95.67
74242;BME280;62599;49.146;10.426;2023-03-01T02:31:58;96379.56;;;-3.67;95.84
74242;BME280;62599;49.146;10.426;2023-03-01T02:34:25;96379.81;;;-3.69;95.61
74242;BME280;62599;49.146;10.426;2023-03-01T02:37:02;96384.13;;;-3.74;95.62
74242;BME280;62599;49.146;10.426;2023-03-01T02:39:49;96372.88;;;-3.81;96.16
74242;BME280;62599;49.146;10.426;2023-03-01T02:42:21;96376.34;;;-3.81;95.44
74242;BME280;62599;49.146;10.426;2023-03-01T02:44:49;96383.06;;;-3.85;96.03
74242;BME280;62599;49.146;10.426;2023-03-01T02:47:15;96370.38;;;-3.88;95.99
74242;BME280;62599;49.146;10.426;2023-03-01T02:49:40;96373.44;;;-3.91;95.92
74242;BME280;62599;49.146;10.426;2023-03-01T02:54:55;96375.34;;;-3.98;97.32
74242;BME280;62599;49.146;10.426;2023-03-01T02:57:23;96373.16;;;-4.01;96.54
74242;BME280;62599;49.146;10.426;2023-03-01T02:59:49;96368.34;;;-4.04;97.88
74242;BME280;62599;49.146;10.426;2023-03-01T03:02:28;96368.78;;;-4.07;97.88
74242;BME280;62599;49.146;10.426;2023-03-01T03:05:08;96366.75;;;-4.05;98.22
74242;BME280;62599;49.146;10.426;2023-03-01T03:07:35;96367.53;;;-4.05;97.81
74242;BME280;62599;49.146;10.426;2023-03-01T03:10:03;96365.94;;;-4.06;97.34
74242;BME280;62599;49.146;10.426;2023-03-01T03:12:29;96357.03;;;-4.05;98.13
74242;BME280;62599;49.146;10.426;2023-03-01T03:14:54;96357.69;;;-4.09;97.63
74242;BME280;62599;49.146;10.426;2023-03-01T03:17:19;96348.84;;;-4.15;97.62
74242;BME280;62599;49.146;10.426;2023-03-01T03:19:45;96343.91;;;-4.23;98.04
74242;BME280;62599;49.146;10.426;2023-03-01T03:22:11;96345.00;;;-4.31;98.68
74242;BME280;62599;49.146;10.426;2023-03-01T03:24:37;96336.41;;;-4.38;98.69
74242;BME280;62599;49.146;10.426;2023-03-01T03:27:07;96335.66;;;-4.45;98.75
74242;BME280;62599;49.146;10.426;2023-03-01T03:29:33;96332.09;;;-4.51;98.88
74242;BME280;62599;49.146;10.426;2023-03-01T03:31:59;96331.72;;;-4.54;99.44
74242;BME280;62599;49.146;10.426;2023-03-01T03:34:24;96326.09;;;-4.58;98.95
74242;BME280;62599;49.146;10.426;2023-03-01T03:36:56;96331.44;;;-4.65;99.22
74242;BME280;62599;49.146;10.426;2023-03-01T03:39:25;96328.66;;;-4.70;100.00
74242;BME280;62599;49.146;10.426;2023-03-01T03:41:50;96323.84;;;-4.73;100.00
74242;BME280;62599;49.146;10.426;2023-03-01T03:44:15;96325.53;;;-4.78;100.00
74242;BME280;62599;49.146;10.426;2023-03-01T03:46:41;96328.59;;;-4.81;99.93
74242;BME280;62599;49.146;10.426;2023-03-01T03:49:06;96330.25;;;-4.87;100.00
74242;BME280;62599;49.146;10.426;2023-03-01T03:51:31;96323.25;;;-4.93;100.00
74242;BME280;62599;49.146;10.426;2023-03-01T03:53:57;96332.38;;;-4.96;100.00
74242;BME280;62599;49.146;10.426;2023-03-01T03:56:22;96321.50;;;-4.99;100.00
74242;BME280;62599;49.146;10.426;2023-03-01T03:58:51;96330.78;;;-4.97;100.00
74242;BME280;62599;49.146;10.426;2023-03-01T04:01:17;96321.34;;;-5.04;100.00
74242;BME280;62599;49.146;10.426;2023-03-01T04:03:42;96323.97;;;-5.04;100.00
74242;BME280;62599;49.146;10.426;2023-03-01T04:06:12;96316.53;;;-5.07;100.00
74242;BME280;62599;49.146;10.426;2023-03-01T04:08:37;96323.38;;;-5.06;100.00
74242;BME280;62599;49.146;10.426;2023-03-01T04:11:04;96323.00;;;-5.10;100.00
74242;BME280;62599;49.146;10.426;2023-03-01T04:13:50;96320.63;;;-5.12;100.00
74242;BME280;62599;49.146;10.426;2023-03-01T04:16:16;96320.25;;;-5.15;100.00
74242;BME280;62599;49.146;10.426;2023-03-01T04:18:43;96317.25;;;-5.19;100.00
74242;BME280;62599;49.146;10.426;2023-03-01T04:21:09;96316.88;;;-5.22;100.00
74242;BME280;62599;49.146;10.426;2023-03-01T04:23:35;96320.13;;;-5.27;100.00
74242;BME280;62599;49.146;10.426;2023-03-01T04:26:01;96315.53;;;-5.32;100.00
74242;BME280;62599;49.146;10.426;2023-03-01T04:28:32;96315.00;;;-5.40;100.00
74242;BME280;62599;49.146;10.426;2023-03-01T04:31:06;96324.16;;;-5.49;100.00
74242;BME280;62599;49.146;10.426;2023-03-01T04:33:42;96327.84;;;-5.57;100.00
74242;BME280;62599;49.146;10.426;2023-03-01T04:36:09;96331.13;;;-5.62;100.00
74242;BME280;62599;49.146;10.426;2023-03-01T04:38:36;96336.38;;;-5.62;100.00
74242;BME280;62599;49.146;10.426;2023-03-01T04:41:06;96342.19;;;-5.60;100.00
74242;BME280;62599;49.146;10.426;2023-03-01T04:43:32;96336.31;;;-5.55;100.00
74242;BME280;62599;49.146;10.426;2023-03-01T04:46:07;96338.88;;;-5.48;100.00
74242;BME280;62599;49.146;10.426;2023-03-01T04:48:35;96334.38;;;-5.41;100.00
74242;BME280;62599;49.146;10.426;2023-03-01T04:51:01;96336.94;;;-5.35;100.00
74242;BME280;62599;49.146;10.426;2023-03-01T04:53:27;96330.84;;;-5.28;100.00
74242;BME280;62599;49.146;10.426;2023-03-01T04:55:54;96338.94;;;-5.30;100.00
74242;BME280;62599;49.146;10.426;2023-03-01T04:58:20;96336.94;;;-5.35;100.00
74242;BME280;62599;49.146;10.426;2023-03-01T05:00:46;96339.00;;;-5.37;100.00
74242;BME280;62599;49.146;10.426;2023-03-01T05:03:11;96329.56;;;-5.44;100.00
74242;BME280;62599;49.146;10.426;2023-03-01T05:05:39;96343.91;;;-5.47;100.00
74242;BME280;62599;49.146;10.426;2023-03-01T05:08:07;96333.47;;;-5.53;100.00
74242;BME280;62599;49.146;10.426;2023-03-01T05:10:35;96335.94;;;-5.59;100.00
74242;BME280;62599;49.146;10.426;2023-03-01T05:13:02;96329.06;;;-5.60;100.00
74242;BME280;62599;49.146;10.426;2023-03-01T05:15:30;96327.47;;;-5.61;100.00
74242;BME280;62599;49.146;10.426;2023-03-01T05:17:58;96327.03;;;-5.58;100.00
74242;BME280;62599;49.146;10.426;2023-03-01T05:20:25;96323.81;;;-5.60;100.00
74242;BME280;62599;49.146;10.426;2023-03-01T05:22:56;96326.28;;;-5.65;100.00
74242;BME280;62599;49.146;10.426;2023-03-01T05:25:24;96331.75;;;-5.66;100.00
74242;BME280;62599;49.146;10.426;2023-03-01T05:27:50;96318.66;;;-5.66;100.00
74242;BME280;62599;49.146;10.426;2023-03-01T05:30:15;96318.19;;;-5.63;100.00
74242;BME280;62599;49.146;10.426;2023-03-01T05:32:44;96322.22;;;-5.61;100.00
74242;BME280;62599;49.146;10.426;2023-03-01T05:35:15;96318.00;;;-5.62;100.00
74242;BME280;62599;49.146;10.426;2023-03-01T05:37:42;96314.78;;;-5.64;100.00
74242;BME280;62599;49.146;10.426;2023-03-01T05:40:10;96312.38;;;-5.65;100.00
74242;BME280;62599;49.146;10.426;2023-03-01T05:42:54;96317.63;;;-5.65;100.00
74242;BME280;62599;49.146;10.426;2023-03-01T05:45:22;96309.38;;;-5.69;100.00
74242;BME280;62599;49.146;10.426;2023-03-01T05:47:48;96313.88;;;-5.76;100.00
74242;BME280;62599;49.146;10.426;2023-03-01T05:50:16;96314.06;;;-5.77;100.00
74242;BME280;62599;49.146;10.426;2023-03-01T05:52:45;96307.88;;;-5.83;100.00
74242;BME280;62599;49.146;10.426;2023-03-01T05:55:11;96311.50;;;-5.84;100.00
74242;BME280;62599;49.146;10.426;2023-03-01T05:57:36;96305.44;;;-5.85;100.00
74242;BME280;62599;49.146;10.426;2023-03-01T06:00:02;96308.88;;;-5.84;100.00
74242;BME280;62599;49.146;10.426;2023-03-01T06:02:28;96308.66;;;-5.83;100.00
74242;BME280;62599;49.146;10.426;2023-03-01T06:04:54;96312.09;;;-5.82;100.00
74242;BME280;62599;49.146;10.426;2023-03-01T06:07:20;96307.44;;;-5.80;100.00
74242;BME280;62599;49.146;10.426;2023-03-01T06:09:45;96295.94;;;-5.79;100.00
74242;BME280;62599;49.146;10.426;2023-03-01T06:12:10;96298.50;;;-5.72;100.00
74242;BME280;62599;49.146;10.426;2023-03-01T06:14:36;96299.03;;;-5.64;100.00
74242;BME280;62599;49.146;10.426;2023-03-01T06:17:01;96291.97;;;-5.63;100.00
74242;BME280;62599;49.146;10.426;2023-03-01T06:19:26;96308.84;;;-5.52;100.00
74242;BME280;62599;49.146;10.426;2023-03-01T06:21:52;96310.84;;;-5.48;100.00
74242;BME280;62599;49.146;10.426;2023-03-01T06:24:17;96307.19;;;-5.47;100.00
74242;BME280;62599;49.146;10.426;2023-03-01T06:26:43;96305.38;;;-5.46;100.00
74242;BME280;62599;49.146;10.426;2023-03-01T06:29:11;96315.06;;;-5.47;100.00
74242;BME280;62599;49.146;10.426;2023-03-01T06:31:36;96307.75;;;-5.45;100.00
74242;BME280;62599;49.146;10.426;2023-03-01T06:34:02;96312.00;;;-5.44;100.00
74242;BME280;62599;49.146;10.426;2023-03-01T06:36:27;96310.38;;;-5.45;100.00
74242;BME280;62599;49.146;10.426;2023-03-01T06:38:53;96304.75;;;-5.48;100.00
74242;BME280;62599;49.146;10.426;2023-03-01T06:41:18;96308.59;;;-5.44;100.00
74242;BME280;62599;49.146;10.426;2023-03-01T06:43:44;96312.81;;;-5.43;100.00
74242;BME280;62599;49.146;10.426;2023-03-01T06:46:09;96315.22;;;-5.42;100.00
74242;BME280;62599;49.146;10.426;2023-03-01T06:48:34;96311.13;;;-5.38;100.00
74242;BME280;62599;49.146;10.426;2023-03-01T06:51:00;96312.09;;;-5.32;100.00
74242;BME280;62599;49.146;10.426;2023-03-01T06:53:29;96318.91;;;-5.24;100.00
74242;BME280;62599;49.146;10.426;2023-03-01T06:55:58;96312.56;;;-5.17;100.00
74242;BME280;62599;49.146;10.426;2023-03-01T06:58:25;96313.47;;;-5.04;100.00
74242;BME280;62599;49.146;10.426;2023-03-01T07:00:51;96313.03;;;-5.01;100.00
74242;BME280;62599;49.146;10.426;2023-03-01T07:03:16;96311.13;;;-4.94;100.00
74242;BME280;62599;49.146;10.426;2023-03-01T07:05:42;96300.56;;;-4.88;100.00
74242;BME280;62599;49.146;10.426;2023-03-01T07:08:07;96307.94;;;-4.78;100.00
74242;BME280;62599;49.146;10.426;2023-03-01T07:10:33;96299.75;;;-4.70;100.00
74242;BME280;62599;49.146;10.426;2023-03-01T07:13:01;96297.66;;;-4.61;100.00
74242;BME280;62599;49.146;10.426;2023-03-01T07:15:27;96300.53;;;-4.51;100.00
74242;BME280;62599;49.146;10.426;2023-03-01T07:17:53;96297.16;;;-4.40;100.00
74242;BME280;62599;49.146;10.426;2023-03-01T07:20:19;96295.41;;;-4.27;100.00
74242;BME280;62599;49.146;10.426;2023-03-01T07:22:49;96293.72;;;-4.22;100.00
74242;BME280;62599;49.146;10.426;2023-03-01T07:25:15;96291.59;;;-4.13;100.00
74242;BME280;62599;49.146;10.426;2023-03-01T07:27:40;96291.28;;;-4.05;100.00
74242;BME280;62599;49.146;10.426;2023-03-01T07:30:06;96293.00;;;-3.99;99.99
74242;BME280;62599;49.146;10.426;2023-03-01T07:32:31;96290.50;;;-3.94;99.51
74242;BME280;62599;49.146;10.426;2023-03-01T07:34:57;96285.03;;;-3.92;98.14
74242;BME280;62599;49.146;10.426;2023-03-01T07:37:22;96284.25;;;-3.81;97.51
74242;BME280;62599;49.146;10.426;2023-03-01T07:39:48;96295.84;;;-3.70;97.61
74242;BME280;62599;49.146;10.426;2023-03-01T07:42:16;96295.72;;;-3.64;98.04
74242;BME280;62599;49.146;10.426;2023-03-01T07:44:44;96284.28;;;-3.57;96.55
74242;BME280;62599;49.146;10.426;2023-03-01T07:47:10;96289.00;;;-3.48;96.69
74242;BME280;62599;49.146;10.426;2023-03-01T07:49:35;96287.06;;;-3.41;96.83
74242;BME280;62599;49.146;10.426;2023-03-01T07:52:00;96291.53;;;-3.29;96.34
74242;BME280;62599;49.146;10.426;2023-03-01T07:54:26;96284.09;;;-3.21;95.56
74242;BME280;62599;49.146;10.426;2023-03-01T07:56:51;96282.72;;;-3.11;95.37
74242;BME280;62599;49.146;10.426;2023-03-01T07:59:17;96282.03;;;-3.07;94.63
74242;BME280;62599;49.146;10.426;2023-03-01T08:01:42;96279.63;;;-2.97;94.07
74242;BME280;62599;49.146;10.426;2023-03-01T08:04:08;96268.47;;;-2.87;94.34
74242;BME280;62599;49.146;10.426;2023-03-01T08:06:35;96261.91;;;-2.73;92.80
74242;BME280;62599;49.146;10.426;2023-03-01T08:09:01;96263.63;;;-2.67;93.64
74242;BME280;62599;49.146;10.426;2023-03-01T08:11:27;96263.59;;;-2.55;92.23
74242;BME280;62599;49.146;10.426;2023-03-01T08:13:55;96267.91;;;-2.37;91.37
74242;BME280;62599;49.146;10.426;2023-03-01T08:16:21;96262.91;;;-2.22;90.20
74242;BME280;62599;49.146;10.426;2023-03-01T08:18:47;96264.00;;;-2.06;89.67
74242;BME280;62599;49.146;10.426;2023-03-01T08:21:14;96263.13;;;-1.95;89.30
74242;BME280;62599;49.146;10.426;2023-03-01T08:23:40;96261.88;;;-1.92;88.83
74242;BME280;62599;49.146;10.426;2023-03-01T08:26:17;96258.44;;;-1.76;87.22
74242;BME280;62599;49.146;10.426;2023-03-01T08:28:44;96255.72;;;-1.81;87.13
74242;BME280;62599;49.146;10.426;2023-03-01T08:31:21;96245.56;;;-1.72;86.72
74242;BME280;62599;49.146;10.426;2023-03-01T08:33:48;96251.63;;;-1.72;85.55
74242;BME280;62599;49.146;10.426;2023-03-01T08:36:16;96248.63;;;-1.63;85.54
74242;BME280;62599;49.146;10.426;2023-03-01T08:38:42;96252.59;;;-1.61;85.59
74242;BME280;62599;49.146;10.426;2023-03-01T08:41:07;96258.63;;;-1.49;85.21
74242;BME280;62599;49.146;10.426;2023-03-01T08:43:36;96253.66;;;-1.45;85.06
74242;BME280;62599;49.146;10.426;2023-03-01T08:46:01;96258.38;;;-1.30;84.51
74242;BME280;62599;49.146;10.426;2023-03-01T08:48:27;96255.47;;;-1.29;84.38
74242;BME280;62599;49.146;10.426;2023-03-01T08:50:53;96247.56;;;-1.29;83.96
74242;BME280;62599;49.146;10.426;2023-03-01T08:53:18;96239.00;;;-1.36;82.52
74242;BME280;62599;49.146;10.426;2023-03-01T08:55:43;96234.09;;;-1.27;84.37
74242;BME280;62599;49.146;10.426;2023-03-01T08:58:09;96243.59;;;-1.09;84.00
74242;BME280;62599;49.146;10.426;2023-03-01T09:00:38;96236.91;;;-0.95;83.36
74242;BME280;62599;49.146;10.426;2023-03-01T09:03:03;96232.34;;;-0.83;82.99
74242;BME280;62599;49.146;10.426;2023-03-01T09:05:32;96239.97;;;-0.64;81.35
74242;BME280;62599;49.146;10.426;2023-03-01T09:07:57;96241.50;;;-0.68;80.29
74242;BME280;62599;49.146;10.426;2023-03-01T09:10:23;96237.81;;;-0.67;81.61
74242;BME280;62599;49.146;10.426;2023-03-01T09:12:48;96228.81;;;-0.66;80.19
74242;BME280;62599;49.146;10.426;2023-03-01T09:15:14;96222.44;;;-0.70;80.11
74242;BME280;62599;49.146;10.426;2023-03-01T09:17:39;96222.38;;;-0.76;80.36
74242;BME280;62599;49.146;10.426;2023-03-01T09:20:05;96219.28;;;-0.67;80.84
74242;BME280;62599;49.146;10.426;2023-03-01T09:22:33;96215.47;;;-0.55;80.46
74242;BME280;62599;49.146;10.426;2023-03-01T09:24:59;96211.53;;;-0.52;79.55
74242;BME280;62599;49.146;10.426;2023-03-01T09:27:24;96216.97;;;-0.37;80.60
74242;BME280;62599;49.146;10.426;2023-03-01T09:29:50;96212.59;;;-0.26;78.59
74242;BME280;62599;49.146;10.426;2023-03-01T09:32:15;96215.00;;;-0.25;77.57
74242;BME280;62599;49.146;10.426;2023-03-01T09:34:41;96207.59;;;-0.22;78.98
74242;BME280;62599;49.146;10.426;2023-03-01T09:37:26;96204.00;;;-0.11;76.75
74242;BME280;62599;49.146;10.426;2023-03-01T09:39:51;96201.63;;;-0.13;77.07
74242;BME280;62599;49.146;10.426;2023-03-01T09:42:17;96197.97;;;-0.07;76.98
74242;BME280;62599;49.146;10.426;2023-03-01T09:47:23;96198.00;;;0.26;78.49
74242;BME280;62599;49.146;10.426;2023-03-01T09:54:58;96196.94;;;0.64;76.36
74242;BME280;62599;49.146;10.426;2023-03-01T09:57:36;96198.72;;;0.53;74.15
74242;BME280;62599;49.146;10.426;2023-03-01T10:02:48;96188.69;;;0.55;74.09
74242;BME280;62599;49.146;10.426;2023-03-01T10:05:34;96196.72;;;0.70;74.11
74242;BME280;62599;49.146;10.426;2023-03-01T10:08:31;96190.19;;;0.88;73.68
74242;BME280;62599;49.146;10.426;2023-03-01T10:11:02;96187.28;;;0.90;71.70
74242;BME280;62599;49.146;10.426;2023-03-01T10:13:44;96181.69;;;0.86;71.72
74242;BME280;62599;49.146;10.426;2023-03-01T10:16:50;96183.03;;;0.89;71.45
74242;BME280;62599;49.146;10.426;2023-03-01T10:19:25;96177.25;;;0.97;71.84
74242;BME280;62599;49.146;10.426;2023-03-01T10:21:53;96182.31;;;1.04;71.20
74242;BME280;62599;49.146;10.426;2023-03-01T10:24:22;96183.16;;;1.14;71.32
74242;BME280;62599;49.146;10.426;2023-03-01T10:26:54;96189.03;;;1.22;70.73
74242;BME280;62599;49.146;10.426;2023-03-01T10:29:37;96181.41;;;1.35;70.50
74242;BME280;62599;49.146;10.426;2023-03-01T10:32:04;96176.59;;;1.27;69.75
74242;BME280;62599;49.146;10.426;2023-03-01T10:34:34;96168.41;;;1.44;70.60
74242;BME280;62599;49.146;10.426;2023-03-01T10:37:20;96180.16;;;1.63;70.58
74242;BME280;62599;49.146;10.426;2023-03-01T10:42:31;96160.00;;;1.83;70.22
74242;BME280;62599;49.146;10.426;2023-03-01T10:48:26;96159.25;;;2.18;70.45
74242;BME280;62599;49.146;10.426;2023-03-01T10:56:12;96127.88;;;2.20;66.61
74242;BME280;62599;49.146;10.426;2023-03-01T10:58:41;96130.81;;;2.29;68.58
74242;BME280;62599;49.146;10.426;2023-03-01T11:03:41;96120.66;;;2.46;64.55
74242;BME280;62599;49.146;10.426;2023-03-01T11:08:43;96116.38;;;2.60;65.39
74242;BME280;62599;49.146;10.426;2023-03-01T11:11:32;96111.84;;;2.71;65.12
74242;BME280;62599;49.146;10.426;2023-03-01T11:14:06;96111.56;;;2.78;63.90
74242;BME280;62599;49.146;10.426;2023-03-01T11:16:37;96099.28;;;2.92;64.71
74242;BME280;62599;49.146;10.426;2023-03-01T11:19:13;96101.63;;;3.04;65.05
74242;BME280;62599;49.146;10.426;2023-03-01T11:21:44;96090.22;;;2.93;62.88
74242;BME280;62599;49.146;10.426;2023-03-01T11:24:14;96088.31;;;3.04;64.28
74242;BME280;62599;49.146;10.426;2023-03-01T11:26:47;96088.06;;;3.00;63.26
74242;BME280;62599;49.146;10.426;2023-03-01T11:29:37;96078.25;;;2.96;63.22
74242;BME280;62599;49.146;10.426;2023-03-01T11:32:07;96071.03;;;3.01;62.62
74242;BME280;62599;49.146;10.426;2023-03-01T11:35:00;96075.25;;;3.07;63.41
74242;BME280;62599;49.146;10.426;2023-03-01T11:37:35;96076.31;;;3.11;63.00
74242;BME280;62599;49.146;10.426;2023-03-01T11:40:33;96077.28;;;3.26;64.16
74242;BME280;62599;49.146;10.426;2023-03-01T11:43:09;96082.31;;;3.32;61.82
74242;BME280;62599;49.146;10.426;2023-03-01T11:45:47;96073.34;;;3.23;61.13
74242;BME280;62599;49.146;10.426;2023-03-01T11:51:15;96065.47;;;3.47;61.01
74242;BME280;62599;49.146;10.426;2023-03-01T12:01:46;96034.75;;;3.60;59.82
74242;BME280;62599;49.146;10.426;2023-03-01T12:07:01;96027.00;;;3.64;61.41
74242;BME280;62599;49.146;10.426;2023-03-01T12:10:00;96022.84;;;3.52;64.23
74242;BME280;62599;49.146;10.426;2023-03-01T12:15:39;96030.53;;;3.54;66.59
74242;BME280;62599;49.146;10.426;2023-03-01T12:18:23;96025.53;;;3.47;67.72
74242;BME280;62599;49.146;10.426;2023-03-01T12:26:06;96011.22;;;4.01;64.18
74242;BME280;62599;49.146;10.426;2023-03-01T12:34:11;96004.13;;;3.92;68.19
74242;BME280;62599;49.146;10.426;2023-03-01T12:42:18;95987.41;;;4.10;69.86
74242;BME280;62599;49.146;10.426;2023-03-01T12:48:08;95978.97;;;3.74;70.52
74242;BME280;62599;49.146;10.426;2023-03-01T12:50:41;95966.69;;;3.78;71.11
74242;BME280;62599;49.146;10.426;2023-03-01T12:53:20;95963.59;;;3.95;68.14
74242;BME280;62599;49.146;10.426;2023-03-01T12:55:49;95958.03;;;3.91;64.64
74242;BME280;62599;49.146;10.426;2023-03-01T13:01:16;95960.03;;;4.52;62.00
74242;BME280;62599;49.146;10.426;2023-03-01T13:07:11;95949.47;;;4.42;61.61
74242;BME280;62599;49.146;10.426;2023-03-01T13:12:42;95944.34;;;4.70;58.19
74242;BME280;62599;49.146;10.426;2023-03-01T13:15:36;95949.97;;;4.87;58.89
74242;BME280;62599;49.146;10.426;2023-03-01T13:23:24;95946.72;;;5.09;55.13
74242;BME280;62599;49.146;10.426;2023-03-01T13:31:08;95956.19;;;5.01;55.31
74242;BME280;62599;49.146;10.426;2023-03-01T13:33:51;95955.75;;;4.94;55.24
74242;BME280;62599;49.146;10.426;2023-03-01T13:39:26;95954.00;;;4.85;55.52
74242;BME280;62599;49.146;10.426;2023-03-01T13:41:55;95956.91;;;4.88;54.99
74242;BME280;62599;49.146;10.426;2023-03-01T13:44:37;95959.56;;;4.88;54.73
74242;BME280;62599;49.146;10.426;2023-03-01T13:50:02;95938.09;;;4.79;55.37
74242;BME280;62599;49.146;10.426;2023-03-01T13:53:14;95938.75;;;4.90;56.46
74242;BME280;62599;49.146;10.426;2023-03-01T13:58:01;95926.75;;;5.06;56.27
74242;BME280;62599;49.146;10.426;2023-03-01T14:00:39;95929.63;;;5.10;55.16
74242;BME280;62599;49.146;10.426;2023-03-01T14:03:11;95933.28;;;5.14;55.04
74242;BME280;62599;49.146;10.426;2023-03-01T14:05:38;95923.50;;;5.10;54.18
74242;BME280;62599;49.146;10.426;2023-03-01T14:08:05;95920.75;;;5.15;54.84
74242;BME280;62599;49.146;10.426;2023-03-01T14:10:45;95915.34;;;5.20;54.17
74242;BME280;62599;49.146;10.426;2023-03-01T14:13:32;95921.47;;;5.20;54.76
74242;BME280;62599;49.146;10.426;2023-03-01T14:19:15;95929.03;;;5.32;54.95
74242;BME280;62599;49.146;10.426;2023-03-01T14:21:45;95920.34;;;5.40;55.06
74242;BME280;62599;49.146;10.426;2023-03-01T14:24:20;95926.47;;;5.41;54.68
74242;BME280;62599;49.146;10.426;2023-03-01T14:26:46;95929.44;;;5.39;54.71
74242;BME280;62599;49.146;10.426;2023-03-01T14:29:37;95932.22;;;5.48;55.78
74242;BME280;62599;49.146;10.426;2023-03-01T14:32:17;95927.31;;;5.55;55.54
74242;BME280;62599;49.146;10.426;2023-03-01T14:34:49;95935.63;;;5.53;55.92
74242;BME280;62599;49.146;10.426;2023-03-01T14:37:41;95926.78;;;5.39;55.32
74242;BME280;62599;49.146;10.426;2023-03-01T14:42:46;95931.59;;;5.37;54.94
74242;BME280;62599;49.146;10.426;2023-03-01T14:45:13;95939.69;;;5.32;54.23
74242;BME280;62599;49.146;10.426;2023-03-01T14:47:38;95933.78;;;5.35;54.79